Time;durP1;ratioP1;P1;durP2;ratioP2;P2;SDS_P1;SDS_P2;PMS_P1;PMS_P2;Temp;Humidity;BMP_temperature;BMP_pressure;BME280_temperature;BME280_humidity;BME280_pressure;Samples;Min_cycle;Max_cycle;Signal;HPM_P1;HPM_P2
2022/08/06 00:03:53;;;;;;;5.00;1.80;;;;;11.20;102054.00;;;;10410695;28;20222;-77
2022/08/06 00:08:56;;;;;;;3.63;1.50;;;;;11.10;102046.00;;;;10428321;28;20206;-77
2022/08/06 00:13:58;;;;;;;3.17;1.70;;;;;11.00;102052.00;;;;10432545;28;20575;-76
2022/08/06 00:19:04;;;;;;;4.50;2.17;;;;;11.00;102069.00;;;;10433078;28;20194;-77
2022/08/06 00:24:21;;;;;;;5.63;2.23;;;;;11.00;102069.00;;;;10420851;28;20223;-76
2022/08/06 00:29:29;;;;;;;6.33;2.00;;;;;10.90;102067.00;;;;10432994;28;20259;-76
2022/08/06 00:34:48;;;;;;;4.07;1.87;;;;;10.90;102083.00;;;;10428965;28;20247;-78
2022/08/06 00:39:50;;;;;;;3.27;1.53;;;;;10.80;102089.00;;;;10431274;28;20564;-78
2022/08/06 00:44:52;;;;;;;4.10;1.50;;;;;10.80;102086.00;;;;10428626;28;20282;-78
2022/08/06 00:49:54;;;;;;;6.13;1.73;;;;;10.70;102090.00;;;;10422128;28;20272;-78
2022/08/06 00:54:56;;;;;;;2.67;1.47;;;;;10.60;102098.00;;;;10406088;28;20221;-78
2022/08/06 01:00:00;;;;;;;5.17;1.60;;;;;10.50;102096.00;;;;10429641;28;20196;-78
2022/08/06 01:05:02;;;;;;;2.53;1.23;;;;;10.50;102085.00;;;;10395373;28;20241;-78
2022/08/06 01:10:24;;;;;;;3.23;1.40;;;;;10.50;102085.00;;;;10421537;28;20673;-78
2022/08/06 01:16:03;;;;;;;3.80;1.23;;;;;10.50;102094.00;;;;10407863;28;20202;-78
2022/08/06 01:21:33;;;;;;;3.77;1.60;;;;;10.40;102101.00;;;;10405498;28;20182;-78
2022/08/06 01:27:23;;;;;;;3.87;1.30;;;;;10.30;102102.00;;;;10423160;28;20279;-78
2022/08/06 01:32:40;;;;;;;3.33;1.60;;;;;10.20;102106.00;;;;10419706;28;20653;-77
2022/08/06 01:37:58;;;;;;;6.27;1.70;;;;;10.20;102110.00;;;;10430266;28;20672;-78
2022/08/06 01:43:04;;;;;;;2.93;1.77;;;;;10.20;102110.00;;;;10495912;28;20178;-78
2022/08/06 01:48:27;;;;;;;3.30;2.10;;;;;10.20;102105.00;;;;10444006;28;20212;-78
2022/08/06 01:53:42;;;;;;;8.60;2.00;;;;;10.30;102098.00;;;;10445917;28;20178;-78
2022/08/06 01:59:05;;;;;;;12.60;2.10;;;;;10.20;102103.00;;;;10430499;28;20178;-78
2022/08/06 02:04:12;;;;;;;3.33;1.63;;;;;10.20;102113.00;;;;10400911;28;20225;-78
2022/08/06 02:09:20;;;;;;;3.93;1.70;;;;;10.20;102111.00;;;;10400459;28;20600;-77
2022/08/06 02:14:32;;;;;;;3.23;1.50;;;;;10.10;102115.00;;;;10444748;28;20198;-78
2022/08/06 02:19:36;;;;;;;3.63;1.57;;;;;10.10;102106.00;;;;10460099;28;20202;-78
2022/08/06 02:25:03;;;;;;;5.70;1.87;;;;;10.10;102099.00;;;;10443903;28;20211;-78
2022/08/06 02:30:16;;;;;;;4.57;2.00;;;;;10.10;102105.00;;;;10428953;28;20209;-78
2022/08/06 02:35:22;;;;;;;2.93;2.27;;;;;10.00;102108.00;;;;10402266;28;20206;-78
2022/08/06 02:40:30;;;;;;;3.53;1.97;;;;;10.00;102106.00;;;;10402401;28;20554;-78
2022/08/06 02:46:13;;;;;;;5.40;2.30;;;;;10.00;102110.00;;;;10386922;28;20281;-77
2022/08/06 02:51:21;;;;;;;6.17;2.30;;;;;10.00;102115.00;;;;10400989;28;20222;-78
2022/08/06 02:56:45;;;;;;;4.57;2.27;;;;;10.00;102118.00;;;;10405322;28;20190;-78
2022/08/06 03:01:56;;;;;;;6.67;2.20;;;;;10.00;102129.00;;;;10410932;28;20275;-78
2022/08/06 03:07:04;;;;;;;6.50;1.90;;;;;10.00;102130.00;;;;10433064;28;20234;-78
2022/08/06 03:12:26;;;;;;;7.07;2.10;;;;;10.00;102144.00;;;;10432135;28;20221;-78
2022/08/06 03:17:34;;;;;;;2.23;1.57;;;;;9.90;102144.00;;;;10402775;28;20202;-78
2022/08/06 03:22:37;;;;;;;3.13;1.97;;;;;9.90;102153.00;;;;10425614;28;20194;-78
2022/08/06 03:27:47;;;;;;;3.63;1.60;;;;;10.00;102155.00;;;;10427576;28;20233;-78
2022/08/06 03:32:49;;;;;;;7.73;1.87;;;;;9.90;102159.00;;;;10440837;28;20710;-78
2022/08/06 03:37:55;;;;;;;4.73;2.10;;;;;9.90;102157.00;;;;10440264;28;20679;-78
2022/08/06 03:43:04;;;;;;;3.83;1.90;;;;;9.90;102161.00;;;;10442682;28;20221;-78
2022/08/06 03:48:14;;;;;;;6.53;1.90;;;;;9.80;102149.00;;;;10416356;28;20233;-78
2022/08/06 03:53:39;;;;;;;7.43;2.80;;;;;9.80;102160.00;;;;10462895;28;20611;-78
2022/08/06 03:58:47;;;;;;;5.40;2.00;;;;;9.80;102156.00;;;;10463345;28;20182;-78
2022/08/06 04:03:50;;;;;;;3.70;1.80;;;;;9.80;102162.00;;;;10432169;28;20274;-78
2022/08/06 04:08:56;;;;;;;4.73;2.53;;;;;9.80;102169.00;;;;10449585;28;20676;-78
2022/08/06 04:13:59;;;;;;;4.13;2.33;;;;;9.80;102164.00;;;;10465974;28;20208;-78
2022/08/06 04:19:11;;;;;;;4.53;2.20;;;;;9.80;102169.00;;;;10465542;28;20289;-78
2022/08/06 04:24:16;;;;;;;3.53;2.20;;;;;9.80;102174.00;;;;10449454;28;20198;-78
2022/08/06 04:29:20;;;;;;;7.47;2.10;;;;;9.80;102176.00;;;;10432911;28;20630;-78
2022/08/06 04:34:26;;;;;;;4.40;2.03;;;;;9.80;102178.00;;;;10456929;28;20198;-78
2022/08/06 04:39:30;;;;;;;8.13;2.20;;;;;9.90;102173.00;;;;10448931;28;20182;-77
2022/08/06 04:44:39;;;;;;;6.33;2.60;;;;;10.00;102176.00;;;;10480639;28;20205;-78
2022/08/06 04:49:46;;;;;;;4.07;2.00;;;;;10.20;102183.00;;;;10459939;28;20676;-77
2022/08/06 04:55:04;;;;;;;7.20;2.47;;;;;10.30;102184.00;;;;10449701;28;20197;-78
2022/08/06 05:00:25;;;;;;;4.07;2.00;;;;;10.60;102193.00;;;;10432476;28;20221;-78
2022/08/06 05:06:33;;;;;;;3.70;2.13;;;;;11.00;102209.00;;;;10461918;28;20207;-78
2022/08/06 05:11:42;;;;;;;5.00;2.00;;;;;11.40;102212.00;;;;10462901;28;20208;-78
2022/08/06 05:17:01;;;;;;;2.43;2.17;;;;;11.60;102216.00;;;;10431742;28;20255;-78
2022/08/06 05:22:07;;;;;;;6.60;2.37;;;;;11.70;102217.00;;;;10409699;28;20540;-78
2022/08/06 05:27:14;;;;;;;4.43;2.33;;;;;11.80;102223.00;;;;10456884;28;20202;-78
2022/08/06 05:32:17;;;;;;;5.40;2.10;;;;;12.10;102223.00;;;;10417428;28;20263;-78
2022/08/06 05:37:25;;;;;;;3.80;2.00;;;;;12.30;102220.00;;;;10429195;28;20212;-78
2022/08/06 05:42:47;;;;;;;3.63;2.47;;;;;12.80;102229.00;;;;10436234;28;20241;-78
2022/08/06 05:48:02;;;;;;;4.27;2.20;;;;;13.20;102233.00;;;;10446271;28;20221;-78
2022/08/06 05:53:11;;;;;;;5.37;2.10;;;;;13.60;102234.00;;;;10405389;28;20202;-78
2022/08/06 05:58:23;;;;;;;4.87;3.73;;;;;14.10;102239.00;;;;10403880;28;20198;-78
2022/08/06 06:03:30;;;;;;;3.80;2.80;;;;;14.70;102244.00;;;;10470663;28;20217;-78
2022/08/06 06:08:36;;;;;;;5.93;2.50;;;;;15.10;102248.00;;;;10459297;28;20206;-78
2022/08/06 06:13:58;;;;;;;5.43;2.33;;;;;15.60;102246.00;;;;10444480;28;20247;-78
2022/08/06 06:19:22;;;;;;;4.57;2.30;;;;;15.90;102247.00;;;;10406484;28;20251;-78
2022/08/06 06:24:35;;;;;;;7.53;1.90;;;;;15.90;102261.00;;;;10435570;28;20252;-78
2022/08/06 06:30:10;;;;;;;14.30;2.97;;;;;16.30;102260.00;;;;10440440;28;20204;-78
2022/08/06 06:35:28;;;;;;;3.90;1.75;;;;;16.50;102273.00;;;;10436339;28;20194;-78
2022/08/06 06:40:42;;;;;;;3.50;2.17;;;;;16.80;102268.00;;;;10411064;28;20188;-78
2022/08/06 06:46:28;;;;;;;3.53;2.33;;;;;17.00;102276.00;;;;10461179;28;20205;-79
2022/08/06 06:51:49;;;;;;;5.18;1.90;;;;;16.90;102277.00;;;;10428168;28;20368;-79
2022/08/06 06:57:01;;;;;;;7.20;2.00;;;;;17.20;102276.00;;;;10422814;28;20220;-78
2022/08/06 07:02:05;;;;;;;8.30;1.92;;;;;17.50;102279.00;;;;10428522;28;20296;-78
2022/08/06 07:07:13;;;;;;;4.78;2.00;;;;;17.90;102287.00;;;;10418053;28;20198;-78
2022/08/06 07:12:25;;;;;;;5.03;1.65;;;;;18.10;102295.00;;;;10419001;28;20236;-79
2022/08/06 07:17:37;;;;;;;8.15;1.88;;;;;18.50;102300.00;;;;10433929;28;20216;-79
2022/08/06 07:22:50;;;;;;;5.32;1.50;;;;;18.90;102306.00;;;;10460057;28;20660;-78
2022/08/06 07:28:14;;;;;;;4.85;1.75;;;;;19.20;102306.00;;;;10408013;28;20221;-79
2022/08/06 07:33:23;;;;;;;3.53;1.50;;;;;19.50;102313.00;;;;10450582;28;20200;-78
2022/08/06 07:38:28;;;;;;;3.58;1.45;;;;;19.60;102309.00;;;;10428703;28;20314;-79
2022/08/06 07:43:35;;;;;;;3.33;1.15;;;;;19.60;102310.00;;;;10460527;28;20250;-79
2022/08/06 07:48:47;;;;;;;4.63;1.42;;;;;19.80;102311.00;;;;10456893;28;20202;-79
2022/08/06 07:53:55;;;;;;;9.32;1.48;;;;;20.30;102315.00;;;;10408620;28;20190;-79
2022/08/06 07:59:09;;;;;;;4.95;1.70;;;;;20.80;102311.00;;;;10438694;28;20696;-79
2022/08/06 08:09:55;;;;;;;6.00;1.40;;;;;21.50;102317.00;;;;10440456;28;20214;-79
2022/08/06 08:15:06;;;;;;;6.75;1.48;;;;;21.80;102313.00;;;;10425133;28;20194;-79
2022/08/06 08:20:19;;;;;;;4.80;0.98;;;;;22.00;102320.00;;;;10464904;28;20279;-79
2022/08/06 08:25:21;;;;;;;5.30;1.30;;;;;22.70;102319.00;;;;10439972;28;20256;-79
2022/08/06 08:30:43;;;;;;;3.97;1.25;;;;;23.10;102317.00;;;;10423364;28;20228;-79
2022/08/06 08:35:49;;;;;;;1.80;1.08;;;;;22.80;102323.00;;;;10391367;28;20679;-79
2022/08/06 08:41:25;;;;;;;4.22;1.10;;;;;22.80;102319.00;;;;10448827;28;20182;-79
2022/08/06 08:46:48;;;;;;;5.20;1.25;;;;;22.50;102329.00;;;;10480178;28;20254;-79
2022/08/06 08:52:00;;;;;;;2.78;1.00;;;;;22.30;102314.00;;;;10435601;28;20717;-79
2022/08/06 08:57:03;;;;;;;5.43;1.30;;;;;22.30;102319.00;;;;10431457;28;20275;-79
2022/08/06 09:02:26;;;;;;;4.00;0.98;;;;;23.20;102305.00;;;;10435552;28;20209;-79
2022/08/06 09:07:30;;;;;;;3.72;0.90;;;;;24.50;102311.00;;;;10428856;28;20293;-79
2022/08/06 09:12:39;;;;;;;3.92;1.15;;;;;25.30;102304.00;;;;10422812;28;20216;-79
2022/08/06 09:17:47;;;;;;;4.88;1.00;;;;;26.30;102315.00;;;;10438521;28;20206;-79
2022/08/06 09:23:09;;;;;;;0.80;0.60;;;;;26.60;102321.00;;;;10421258;28;20202;-79
2022/08/06 09:28:34;;;;;;;2.70;0.88;;;;;27.10;102322.00;;;;10438688;28;20204;-79
2022/08/06 09:33:52;;;;;;;4.07;0.73;;;;;26.40;102321.00;;;;10478839;28;20204;-79
2022/08/06 09:39:14;;;;;;;1.85;0.70;;;;;26.60;102332.00;;;;10445557;28;20189;-79
2022/08/06 09:44:24;;;;;;;2.40;0.88;;;;;26.40;102322.00;;;;10443571;28;20641;-79
2022/08/06 09:49:45;;;;;;;2.72;0.90;;;;;26.30;102322.00;;;;10420526;28;20237;-78
2022/08/06 09:55:01;;;;;;;1.58;0.50;;;;;27.50;102319.00;;;;10414077;28;20206;-79
2022/08/06 10:00:30;;;;;;;1.73;0.60;;;;;27.60;102325.00;;;;10434269;28;20196;-79
2022/08/06 10:05:35;;;;;;;2.78;0.50;;;;;27.70;102324.00;;;;10452570;28;20308;-79
2022/08/06 10:10:51;;;;;;;1.15;0.50;;;;;28.00;102321.00;;;;10458413;28;20202;-79
2022/08/06 10:15:55;;;;;;;0.93;0.60;;;;;28.20;102321.00;;;;10454607;28;20206;-79
2022/08/06 10:21:06;;;;;;;2.33;0.75;;;;;28.50;102309.00;;;;10446071;28;20253;-79
2022/08/06 10:26:11;;;;;;;1.67;0.70;;;;;28.90;102302.00;;;;10438736;28;20228;-80
2022/08/06 10:31:16;;;;;;;1.58;0.55;;;;;29.00;102298.00;;;;10439649;28;20214;-79
2022/08/06 10:36:30;;;;;;;0.93;0.57;;;;;29.70;102298.00;;;;10443754;28;20207;-79
2022/08/06 10:41:40;;;;;;;4.13;0.80;;;;;29.90;102291.00;;;;10462930;28;20186;-79
2022/08/06 10:47:03;;;;;;;4.72;0.60;;;;;30.20;102291.00;;;;10469499;28;20189;-79
2022/08/06 10:52:06;;;;;;;2.65;0.70;;;;;30.70;102292.00;;;;10440882;28;20225;-79
2022/08/06 10:57:12;;;;;;;3.50;0.88;;;;;30.70;102294.00;;;;10440195;28;20194;-79
2022/08/06 11:02:57;;;;;;;2.03;0.93;;;;;31.10;102286.00;;;;10446403;28;20215;-79
2022/08/06 11:08:18;;;;;;;2.25;0.77;;;;;31.20;102278.00;;;;10446359;28;20262;-80
2022/08/06 11:13:53;;;;;;;2.78;0.60;;;;;31.20;102283.00;;;;10416941;28;20194;-79
2022/08/06 11:19:11;;;;;;;1.67;0.82;;;;;30.30;102278.00;;;;10451796;28;20197;-79
2022/08/06 11:24:15;;;;;;;1.55;0.68;;;;;31.00;102274.00;;;;10448269;28;20197;-80
2022/08/06 11:29:21;;;;;;;3.30;0.88;;;;;31.40;102273.00;;;;10440875;28;20217;-79
2022/08/06 11:34:43;;;;;;;0.90;0.70;;;;;31.20;102263.00;;;;10425395;28;20237;-79
2022/08/06 11:40:05;;;;;;;3.20;0.73;;;;;31.20;102266.00;;;;10409943;28;20194;-79
2022/08/06 11:45:08;;;;;;;1.42;0.68;;;;;31.60;102265.00;;;;10405715;28;20205;-79
2022/08/06 11:50:30;;;;;;;1.20;0.60;;;;;29.30;102266.00;;;;10408560;28;20320;-79
2022/08/06 11:56:03;;;;;;;1.67;0.60;;;;;29.90;102257.00;;;;10460152;28;20182;-79
2022/08/06 12:01:05;;;;;;;3.20;0.50;;;;;27.70;102246.00;;;;10431114;28;21234;-79
2022/08/06 12:06:27;;;;;;;1.95;0.60;;;;;27.70;102243.00;;;;10433991;28;20193;-78
2022/08/06 12:11:31;;;;;;;1.63;0.80;;;;;29.10;102248.00;;;;10440709;28;21062;-79
2022/08/06 12:16:39;;;;;;;1.63;0.80;;;;;30.50;102243.00;;;;10420431;28;20210;-78
2022/08/06 12:21:52;;;;;;;1.50;0.70;;;;;30.00;102242.00;;;;10424551;28;20194;-79
2022/08/06 12:26:58;;;;;;;1.45;0.80;;;;;30.40;102227.00;;;;10463999;28;20196;-79
2022/08/06 12:32:00;;;;;;;1.65;0.63;;;;;31.40;102232.00;;;;10464307;28;20214;-79
2022/08/06 12:37:02;;;;;;;1.55;0.73;;;;;29.40;102223.00;;;;10445150;28;20185;-79
2022/08/06 12:42:05;;;;;;;1.35;0.65;;;;;27.60;102223.00;;;;10436205;28;20196;-79
2022/08/06 12:47:14;;;;;;;2.95;1.17;;;;;29.00;102218.00;;;;10447411;28;20213;-78
2022/08/06 12:52:20;;;;;;;2.22;1.08;;;;;30.60;102211.00;;;;10410799;28;20304;-79
2022/08/06 12:57:31;;;;;;;1.38;0.80;;;;;30.90;102223.00;;;;10455952;28;20197;-79
2022/08/06 13:02:54;;;;;;;1.35;0.80;;;;;28.50;102218.00;;;;10430599;28;20209;-79
2022/08/06 13:07:58;;;;;;;0.95;0.73;;;;;27.00;102214.00;;;;10439167;28;20194;-79
2022/08/06 13:13:05;;;;;;;2.47;0.90;;;;;28.40;102196.00;;;;10405538;28;20706;-78
2022/08/06 13:18:28;;;;;;;2.85;1.30;;;;;29.80;102194.00;;;;10460105;28;20217;-79
2022/08/06 13:23:48;;;;;;;2.83;0.93;;;;;30.60;102196.00;;;;10419950;28;20198;-79
2022/08/06 13:29:22;;;;;;;2.95;1.00;;;;;31.10;102192.00;;;;10403634;28;20210;-79
2022/08/06 13:34:52;;;;;;;1.50;0.60;;;;;32.40;102185.00;;;;10429549;28;20228;-79
2022/08/06 13:39:54;;;;;;;3.55;0.70;;;;;31.40;102197.00;;;;10404516;28;20197;-79
2022/08/06 13:44:58;;;;;;;1.83;1.15;;;;;28.70;102192.00;;;;10420851;28;20744;-79
2022/08/06 13:50:00;;;;;;;1.10;1.00;;;;;27.50;102187.00;;;;10452511;28;20206;-79
2022/08/06 13:55:07;;;;;;;2.40;1.00;;;;;30.60;102189.00;;;;10462065;28;20188;-79
2022/08/06 14:00:12;;;;;;;1.63;0.90;;;;;30.90;102177.00;;;;10460146;28;20243;-79
2022/08/06 14:05:24;;;;;;;1.98;1.23;;;;;28.50;102194.00;;;;10461604;28;20220;-79
2022/08/06 14:10:27;;;;;;;3.70;1.30;;;;;26.60;102179.00;;;;10460441;28;20202;-79
2022/08/06 14:15:35;;;;;;;4.47;1.50;;;;;29.70;102163.00;;;;10420249;28;20206;-79
2022/08/06 14:20:43;;;;;;;2.53;1.50;;;;;33.80;102162.00;;;;10460975;28;20272;-78
2022/08/06 14:25:46;;;;;;;1.35;1.25;;;;;34.40;102168.00;;;;10457558;28;20190;-79
2022/08/06 14:31:03;;;;;;;0.95;0.75;;;;;35.90;102155.00;;;;10426903;28;20198;-79
2022/08/06 14:36:09;;;;;;;0.93;0.88;;;;;37.70;102152.00;;;;10444219;28;20197;-79
2022/08/06 14:46:52;;;;;;;1.23;0.80;;;;;30.50;102158.00;;;;10478436;28;20629;-78
2022/08/06 14:51:54;;;;;;;2.13;0.75;;;;;30.40;102157.00;;;;10439516;28;20667;-79
2022/08/06 14:57:16;;;;;;;2.28;0.80;;;;;35.20;102143.00;;;;10417410;28;20221;-78
2022/08/06 15:02:24;;;;;;;2.78;1.00;;;;;35.80;102150.00;;;;10446908;28;20308;-78
2022/08/06 15:07:28;;;;;;;3.83;1.27;;;;;32.10;102143.00;;;;10439607;28;20280;-79
2022/08/06 15:12:42;;;;;;;2.53;1.40;;;;;28.60;102136.00;;;;10460729;28;20282;-79
2022/08/06 15:17:56;;;;;;;3.42;2.17;;;;;27.40;102125.00;;;;10441776;28;20280;-79
2022/08/06 15:23:18;;;;;;;2.40;1.42;;;;;26.60;102133.00;;;;10446528;28;20190;-79
2022/08/06 15:28:21;;;;;;;3.08;1.50;;;;;25.80;102132.00;;;;10459139;28;20260;-79
2022/08/06 15:33:27;;;;;;;2.88;1.30;;;;;26.30;102115.00;;;;10475014;28;20201;-79
2022/08/06 15:38:39;;;;;;;1.42;1.33;;;;;27.60;102110.00;;;;10458856;28;20193;-79
2022/08/06 15:43:42;;;;;;;1.98;1.20;;;;;29.20;102097.00;;;;10458481;28;20551;-79
2022/08/06 15:48:52;;;;;;;2.10;1.33;;;;;27.00;102111.00;;;;10477080;28;20219;-79
2022/08/06 15:53:58;;;;;;;1.90;1.23;;;;;26.30;102106.00;;;;10450013;28;20185;-79
2022/08/06 15:59:00;;;;;;;3.30;1.40;;;;;26.00;102105.00;;;;10465794;28;20212;-79
2022/08/06 16:04:07;;;;;;;2.25;1.00;;;;;25.60;102097.00;;;;10447152;28;20637;-79
2022/08/06 16:09:09;;;;;;;6.15;1.45;;;;;25.50;102088.00;;;;10464564;28;20192;-79
2022/08/06 16:14:13;;;;;;;4.75;2.15;;;;;25.50;102092.00;;;;10420570;28;20685;-79
2022/08/06 16:19:20;;;;;;;1.30;1.20;;;;;25.30;102093.00;;;;10407887;28;20282;-79
2022/08/06 16:24:22;;;;;;;9.60;1.63;;;;;24.70;102085.00;;;;10439736;28;20202;-78
2022/08/06 16:29:27;;;;;;;3.00;1.65;;;;;24.30;102086.00;;;;10423523;28;20665;-78
2022/08/06 16:34:29;;;;;;;2.15;1.20;;;;;24.30;102085.00;;;;10453892;28;20198;-79
2022/08/06 16:39:38;;;;;;;3.53;1.42;;;;;24.50;102082.00;;;;10463861;28;20256;-79
2022/08/06 16:44:58;;;;;;;1.58;1.27;;;;;24.80;102079.00;;;;10458977;28;20671;-79
2022/08/06 16:50:02;;;;;;;2.30;1.50;;;;;24.70;102080.00;;;;10432227;28;20210;-78
2022/08/06 16:55:24;;;;;;;2.28;1.50;;;;;24.50;102078.00;;;;10392492;28;20248;-78
2022/08/06 17:00:26;;;;;;;3.05;1.55;;;;;24.20;102077.00;;;;10424765;28;20261;-78
2022/08/06 17:05:48;;;;;;;2.85;1.60;;;;;23.90;102080.00;;;;10441710;28;20214;-78
2022/08/06 17:11:10;;;;;;;1.67;1.48;;;;;23.70;102074.00;;;;10421630;28;20210;-78
2022/08/06 17:16:32;;;;;;;1.83;1.15;;;;;23.80;102069.00;;;;10417595;28;20225;-78
2022/08/06 17:21:35;;;;;;;4.90;3.15;;;;;23.80;102064.00;;;;10446430;28;20228;-78
2022/08/06 17:26:58;;;;;;;6.63;3.03;;;;;23.90;102067.00;;;;10432190;28;20220;-78
2022/08/06 17:32:00;;;;;;;1.98;1.55;;;;;23.90;102062.00;;;;10408277;28;20215;-78
2022/08/06 17:37:05;;;;;;;3.45;1.70;;;;;23.80;102062.00;;;;10436980;28;20248;-78
2022/08/06 17:42:25;;;;;;;6.28;4.60;;;;;23.60;102052.00;;;;10422956;28;20182;-78
2022/08/06 17:47:27;;;;;;;4.35;3.47;;;;;23.20;102073.00;;;;10435939;28;20255;-78
2022/08/06 17:52:49;;;;;;;1.73;1.52;;;;;22.80;102061.00;;;;10419329;28;20293;-78
2022/08/06 17:57:53;;;;;;;3.38;1.48;;;;;22.60;102055.00;;;;10428475;28;20199;-78
2022/08/06 18:03:16;;;;;;;2.38;1.50;;;;;22.50;102059.00;;;;10448348;28;20224;-79
2022/08/06 18:08:39;;;;;;;1.65;1.50;;;;;22.50;102064.00;;;;10431705;28;20235;-79
2022/08/06 18:13:52;;;;;;;1.80;1.58;;;;;22.40;102064.00;;;;10442869;28;20205;-79
2022/08/06 18:18:56;;;;;;;1.48;1.38;;;;;22.30;102069.00;;;;10428044;28;20205;-79
2022/08/06 18:23:59;;;;;;;2.40;1.60;;;;;22.00;102073.00;;;;10402587;28;20248;-78
2022/08/06 18:29:04;;;;;;;3.38;1.35;;;;;21.70;102076.00;;;;10419000;28;20185;-79
2022/08/06 18:34:07;;;;;;;1.33;1.23;;;;;21.40;102077.00;;;;10402744;28;20230;-79
2022/08/06 18:39:19;;;;;;;1.65;1.40;;;;;21.10;102072.00;;;;10474776;28;20210;-79
2022/08/06 18:44:41;;;;;;;6.25;1.77;;;;;20.80;102083.00;;;;10446133;28;20197;-79
2022/08/06 18:49:46;;;;;;;3.28;1.55;;;;;20.50;102086.00;;;;10402000;28;20216;-78
2022/08/06 18:54:55;;;;;;;3.97;1.42;;;;;20.20;102081.00;;;;10408946;28;20196;-79
2022/08/06 18:59:59;;;;;;;2.17;1.42;;;;;20.00;102085.00;;;;10459732;28;20217;-79
2022/08/06 19:05:03;;;;;;;2.00;1.50;;;;;19.80;102094.00;;;;10443596;28;20741;-79
2022/08/06 19:10:07;;;;;;;3.65;1.50;;;;;19.60;102095.00;;;;10455251;28;20238;-79
2022/08/06 19:15:16;;;;;;;2.20;1.40;;;;;19.40;102097.00;;;;10401750;28;20612;-79
2022/08/06 19:20:25;;;;;;;4.47;1.25;;;;;19.10;102106.00;;;;10418377;28;20236;-79
2022/08/06 19:25:32;;;;;;;1.30;1.20;;;;;18.90;102108.00;;;;10435301;28;20201;-79
2022/08/06 19:30:54;;;;;;;3.05;1.20;;;;;18.80;102126.00;;;;10436917;28;20212;-80
2022/08/06 19:35:56;;;;;;;3.15;1.60;;;;;18.70;102120.00;;;;10451994;28;20297;-79
2022/08/06 19:41:16;;;;;;;1.30;1.00;;;;;18.50;102127.00;;;;10430070;28;20192;-79
2022/08/06 19:46:38;;;;;;;2.05;1.40;;;;;18.40;102130.00;;;;10449968;28;20292;-79
2022/08/06 19:51:57;;;;;;;1.65;1.15;;;;;18.30;102137.00;;;;10435629;28;20632;-79
2022/08/06 19:57:06;;;;;;;3.03;1.23;;;;;18.20;102141.00;;;;10450917;28;20681;-79
2022/08/06 20:02:10;;;;;;;1.85;0.75;;;;;18.10;102142.00;;;;10455844;28;20214;-79
2022/08/06 20:07:17;;;;;;;2.13;1.15;;;;;18.00;102145.00;;;;10449934;28;20202;-79
2022/08/06 20:12:26;;;;;;;2.05;0.93;;;;;17.90;102149.00;;;;10408561;28;20234;-79
2022/08/06 20:17:35;;;;;;;3.17;1.15;;;;;17.70;102154.00;;;;10405040;28;20220;-79
2022/08/06 20:22:50;;;;;;;1.70;0.90;;;;;17.70;102160.00;;;;10441373;28;20186;-79
2022/08/06 20:27:57;;;;;;;1.60;1.50;;;;;17.60;102163.00;;;;10391938;28;20198;-78
2022/08/06 20:33:24;;;;;;;1.45;1.10;;;;;17.50;102161.00;;;;10444997;28;20193;-78
2022/08/06 20:38:27;;;;;;;1.90;1.00;;;;;17.40;102170.00;;;;10481106;28;20192;-78
2022/08/06 20:43:44;;;;;;;1.50;1.00;;;;;17.30;102170.00;;;;10447870;28;20185;-79
2022/08/06 20:49:06;;;;;;;2.30;1.20;;;;;17.20;102174.00;;;;10438437;28;20182;-79
2022/08/06 20:54:14;;;;;;;2.42;1.10;;;;;17.10;102180.00;;;;10390849;28;20734;-79
2022/08/06 20:59:19;;;;;;;1.57;1.10;;;;;17.00;102181.00;;;;10422244;28;20212;-79
2022/08/06 21:04:20;;;;;;;1.40;1.30;;;;;16.90;102173.00;;;;10405726;28;20218;-79
2022/08/06 21:09:42;;;;;;;1.40;1.30;;;;;16.80;102182.00;;;;10437077;28;20201;-78
2022/08/06 21:14:47;;;;;;;3.80;1.23;;;;;16.70;102179.00;;;;10447294;28;20273;-79
2022/08/06 21:19:49;;;;;;;1.40;1.30;;;;;16.60;102178.00;;;;10446056;28;20296;-79
2022/08/06 21:25:11;;;;;;;2.53;1.60;;;;;16.50;102193.00;;;;10464490;28;20285;-78
2022/08/06 21:30:18;;;;;;;2.67;1.40;;;;;16.40;102191.00;;;;10445576;28;20209;-79
2022/08/06 21:35:32;;;;;;;1.97;1.30;;;;;16.20;102195.00;;;;10443360;28;20299;-79
2022/08/06 21:40:36;;;;;;;2.23;1.50;;;;;16.10;102192.00;;;;10428694;28;20301;-79
2022/08/06 21:45:38;;;;;;;3.00;1.30;;;;;16.00;102191.00;;;;10433983;28;20244;-79
2022/08/06 21:51:00;;;;;;;4.53;1.30;;;;;15.90;102185.00;;;;10424579;28;20206;-78
2022/08/06 21:56:02;;;;;;;1.87;1.40;;;;;15.80;102189.00;;;;10411584;28;20275;-79
2022/08/06 22:01:25;;;;;;;3.83;1.90;;;;;15.70;102187.00;;;;10430108;28;20232;-78
2022/08/06 22:06:47;;;;;;;2.57;1.30;;;;;15.60;102190.00;;;;10428892;28;20220;-79
2022/08/06 22:11:54;;;;;;;3.17;1.53;;;;;15.50;102181.00;;;;10444888;28;20201;-78
2022/08/06 22:17:17;;;;;;;2.07;1.67;;;;;15.30;102175.00;;;;10430816;28;20625;-78
2022/08/06 22:22:39;;;;;;;2.67;1.40;;;;;15.20;102184.00;;;;10418861;28;20213;-78
2022/08/06 22:27:42;;;;;;;2.90;1.63;;;;;15.00;102173.00;;;;10430471;28;20185;-78
2022/08/06 22:32:55;;;;;;;2.20;1.73;;;;;14.90;102173.00;;;;10452875;28;20198;-78
2022/08/06 22:38:03;;;;;;;2.03;1.30;;;;;14.80;102186.00;;;;10426847;28;20652;-78
2022/08/06 22:43:22;;;;;;;3.03;1.60;;;;;14.50;102175.00;;;;10427632;28;20200;-79
2022/08/06 22:48:44;;;;;;;3.00;1.70;;;;;14.40;102176.00;;;;10445588;28;20276;-79
2022/08/06 22:53:48;;;;;;;1.50;1.27;;;;;14.30;102171.00;;;;10442555;28;20256;-79
2022/08/06 22:59:10;;;;;;;2.57;1.70;;;;;14.30;102173.00;;;;10438961;28;20243;-79
2022/08/06 23:04:33;;;;;;;7.00;1.80;;;;;14.20;102165.00;;;;10415363;28;20210;-79
2022/08/06 23:09:36;;;;;;;3.20;1.47;;;;;14.20;102157.00;;;;10432318;28;20190;-79
2022/08/06 23:14:40;;;;;;;2.13;1.60;;;;;14.10;102160.00;;;;10449005;28;20220;-79
2022/08/06 23:19:43;;;;;;;3.00;1.40;;;;;14.00;102164.00;;;;10456605;28;20201;-78
2022/08/06 23:24:59;;;;;;;3.87;1.60;;;;;13.90;102154.00;;;;10458047;28;20201;-79
2022/08/06 23:30:21;;;;;;;2.77;1.77;;;;;13.80;102148.00;;;;10470349;28;20212;-79
2022/08/06 23:35:23;;;;;;;2.47;1.77;;;;;13.70;102144.00;;;;10444028;28;20235;-79
2022/08/06 23:40:38;;;;;;;4.10;1.93;;;;;13.70;102148.00;;;;10472277;28;20189;-78
2022/08/06 23:45:42;;;;;;;5.90;1.90;;;;;13.50;102153.00;;;;10456437;28;20243;-79
2022/08/06 23:50:48;;;;;;;1.60;1.50;;;;;13.50;102141.00;;;;10471497;28;20198;-79
2022/08/06 23:55:54;;;;;;;3.30;2.00;;;;;13.40;102140.00;;;;10439724;28;20276;-79
